createdAt,value
2023-03-29T00:02:38.884Z,1.33
2023-03-29T00:05:42.490Z,1.57
2023-03-29T00:08:46.025Z,1.80
2023-03-29T00:11:49.021Z,2.33
2023-03-29T00:14:52.010Z,1.80
2023-03-29T00:17:54.987Z,2.08
2023-03-29T00:20:58.798Z,2.30
2023-03-29T00:24:01.800Z,1.83
2023-03-29T00:27:05.077Z,1.80
2023-03-29T00:30:10.193Z,1.63
2023-03-29T00:33:14.769Z,2.00
2023-03-29T00:36:18.887Z,1.70
2023-03-29T00:39:21.982Z,1.73
2023-03-29T00:42:25.610Z,1.38
2023-03-29T00:45:31.799Z,1.55
2023-03-29T00:48:34.719Z,1.60
2023-03-29T00:51:38.146Z,1.73
2023-03-29T00:54:43.379Z,1.60
2023-03-29T00:57:46.823Z,1.67
2023-03-29T01:00:53.058Z,1.48
2023-03-29T01:04:07.018Z,1.55
2023-03-29T01:07:18.094Z,1.40
2023-03-29T01:10:26.580Z,1.37
2023-03-29T01:13:51.522Z,1.65
2023-03-29T01:16:54.629Z,1.67
2023-03-29T01:20:00.457Z,1.70
2023-03-29T01:23:14.175Z,1.40
2023-03-29T01:26:42.697Z,1.80
2023-03-29T01:29:54.276Z,1.98
2023-03-29T01:33:23.418Z,1.15
2023-03-29T01:36:50.884Z,1.40
2023-03-29T01:39:54.035Z,1.37
2023-03-29T01:43:34.448Z,1.23
2023-03-29T01:46:46.110Z,1.55
2023-03-29T01:49:57.231Z,1.65
2023-03-29T01:53:01.471Z,1.52
2023-03-29T01:56:19.769Z,2.00
2023-03-29T01:59:29.487Z,1.90
2023-03-29T02:02:33.108Z,1.48
2023-03-29T02:05:37.948Z,1.80
2023-03-29T02:08:41.217Z,1.67
2023-03-29T02:11:44.159Z,1.73
2023-03-29T02:14:47.212Z,1.37
2023-03-29T02:17:51.010Z,1.75
2023-03-29T02:20:54.118Z,1.52
2023-03-29T02:23:57.576Z,2.17
2023-03-29T02:27:01.348Z,2.10
2023-03-29T02:30:08.385Z,2.33
2023-03-29T02:33:23.966Z,2.25
2023-03-29T02:36:29.891Z,1.75
2023-03-29T02:39:33.785Z,1.95
2023-03-29T02:42:36.907Z,1.73
2023-03-29T02:45:39.907Z,1.90
2023-03-29T02:48:42.913Z,2.00
2023-03-29T02:51:47.370Z,2.03
2023-03-29T02:54:51.344Z,2.33
2023-03-29T02:57:54.326Z,2.57
2023-03-29T03:00:57.840Z,1.93
2023-03-29T03:04:02.386Z,1.73
2023-03-29T03:07:05.569Z,1.90
2023-03-29T03:10:10.185Z,2.20
2023-03-29T03:13:14.155Z,2.43
2023-03-29T03:16:17.109Z,2.73
2023-03-29T03:19:20.448Z,3.13
2023-03-29T03:22:23.354Z,3.00
2023-03-29T03:25:26.262Z,3.17
2023-03-29T03:28:29.358Z,4.07
2023-03-29T03:31:33.628Z,3.17
2023-03-29T03:34:46.802Z,3.30
2023-03-29T03:37:50.043Z,3.75
2023-03-29T03:40:55.196Z,3.30
2023-03-29T03:43:58.697Z,2.43
2023-03-29T03:47:01.687Z,2.13
2023-03-29T03:50:05.727Z,4.15
2023-03-29T03:53:09.380Z,3.13
2023-03-29T03:56:30.621Z,3.08
2023-03-29T03:59:42.494Z,2.87
2023-03-29T04:02:51.649Z,3.00
2023-03-29T04:05:54.787Z,3.15
2023-03-29T04:09:00.945Z,3.90
2023-03-29T04:12:12.203Z,4.18
2023-03-29T04:15:17.993Z,4.27
2023-03-29T04:18:29.266Z,5.00
2023-03-29T04:21:34.936Z,4.90
2023-03-29T04:24:37.941Z,3.83
2023-03-29T04:28:09.649Z,3.53
2023-03-29T04:31:28.190Z,3.87
2023-03-29T04:34:53.732Z,3.10
2023-03-29T04:37:57.054Z,4.68
2023-03-29T04:41:02.383Z,11.60
2023-03-29T04:44:24.320Z,16.27
2023-03-29T04:47:31.270Z,4.27
2023-03-29T04:50:40.308Z,3.80
2023-03-29T04:53:43.293Z,3.47
2023-03-29T04:56:46.415Z,4.15
2023-03-29T05:00:20.434Z,4.72
2023-03-29T05:03:46.453Z,5.00
2023-03-29T05:06:55.923Z,4.70
2023-03-29T05:09:59.641Z,4.45
2023-03-29T05:13:04.108Z,4.80
2023-03-29T05:16:08.910Z,4.55
2023-03-29T05:19:13.086Z,4.43
2023-03-29T05:22:21.801Z,5.23
2023-03-29T05:25:25.887Z,5.88
2023-03-29T05:28:31.346Z,4.60
2023-03-29T05:31:34.782Z,5.68
2023-03-29T05:34:38.133Z,5.20
2023-03-29T05:37:41.254Z,7.73
2023-03-29T05:40:44.336Z,9.40
2023-03-29T05:44:02.545Z,10.07
2023-03-29T05:47:07.248Z,18.48
2023-03-29T05:50:11.226Z,21.90
2023-03-29T05:53:15.972Z,16.87
2023-03-29T05:56:23.770Z,12.75
2023-03-29T05:59:29.689Z,7.50
2023-03-29T06:02:36.599Z,6.85
2023-03-29T06:05:40.434Z,5.30
2023-03-29T06:08:44.024Z,5.27
2023-03-29T06:12:10.687Z,5.68
2023-03-29T06:15:18.377Z,5.00
2023-03-29T06:18:25.052Z,4.38
2023-03-29T06:21:28.578Z,4.77
2023-03-29T06:24:35.087Z,4.23
2023-03-29T06:27:46.869Z,4.63
2023-03-29T06:30:54.140Z,4.28
2023-03-29T06:34:01.721Z,4.25
2023-03-29T06:37:23.787Z,3.93
2023-03-29T06:40:37.885Z,4.13
2023-03-29T06:43:41.007Z,4.13
2023-03-29T06:46:50.332Z,4.30
2023-03-29T06:49:53.386Z,4.20
2023-03-29T06:53:11.704Z,4.17
2023-03-29T06:56:17.749Z,4.20
2023-03-29T06:59:32.273Z,4.05
2023-03-29T07:02:49.716Z,3.95
2023-03-29T07:05:56.832Z,3.60
2023-03-29T07:09:01.812Z,3.60
2023-03-29T07:12:21.403Z,3.93
2023-03-29T07:15:24.442Z,3.85
2023-03-29T07:18:45.843Z,3.42
2023-03-29T07:21:58.737Z,3.20
2023-03-29T07:25:13.095Z,3.40
2023-03-29T07:28:16.170Z,2.47
2023-03-29T07:31:19.533Z,2.70
2023-03-29T07:34:30.076Z,2.92
2023-03-29T07:37:34.314Z,2.65
2023-03-29T07:40:37.480Z,2.13
2023-03-29T07:44:09.674Z,2.30
2023-03-29T07:47:15.683Z,2.25
2023-03-29T07:50:18.887Z,2.83
2023-03-29T07:53:23.080Z,2.63
2023-03-29T07:56:28.392Z,2.57
2023-03-29T07:59:49.859Z,2.10
2023-03-29T08:02:59.212Z,1.98
2023-03-29T08:06:03.266Z,2.00
2023-03-29T08:09:09.410Z,1.98
2023-03-29T08:12:12.850Z,2.30
2023-03-29T08:15:16.646Z,2.30
2023-03-29T08:18:19.824Z,2.22
2023-03-29T08:21:22.746Z,1.90
2023-03-29T08:24:26.796Z,1.65
2023-03-29T08:27:34.001Z,2.00
2023-03-29T08:30:38.512Z,1.73
2023-03-29T08:33:44.882Z,2.08
2023-03-29T08:37:06.247Z,1.65
2023-03-29T08:40:19.810Z,2.33
2023-03-29T08:43:52.298Z,1.90
2023-03-29T08:47:44.205Z,2.13
2023-03-29T08:50:52.899Z,2.10
2023-03-29T08:54:17.169Z,1.80
2023-03-29T08:57:48.135Z,1.63
2023-03-29T09:01:01.797Z,1.80
2023-03-29T09:04:19.122Z,1.90
2023-03-29T09:07:29.530Z,2.00
2023-03-29T09:10:40.938Z,1.80
2023-03-29T09:14:03.442Z,1.98
2023-03-29T09:17:30.742Z,1.57
2023-03-29T09:20:50.175Z,1.90
2023-03-29T09:24:02.052Z,2.15
2023-03-29T09:27:44.283Z,2.28
2023-03-29T09:31:31.725Z,1.73
2023-03-29T09:34:47.997Z,1.83
2023-03-29T09:37:55.374Z,1.80
2023-03-29T09:41:26.763Z,2.00
2023-03-29T09:44:57.357Z,1.73
2023-03-29T09:48:17.584Z,2.05
2023-03-29T09:51:28.016Z,2.33
2023-03-29T09:54:31.941Z,2.50
2023-03-29T09:57:47.308Z,2.28
2023-03-29T10:00:51.608Z,2.53
2023-03-29T10:03:55.497Z,2.22
2023-03-29T10:06:59.999Z,2.40
2023-03-29T10:10:03.789Z,2.57
2023-03-29T10:13:10.337Z,2.72
2023-03-29T10:16:21.974Z,16.48
2023-03-29T10:19:34.724Z,3.53
2023-03-29T10:22:40.044Z,8.40
2023-03-29T10:25:45.707Z,2.80
2023-03-29T10:28:48.679Z,2.78
2023-03-29T10:31:51.897Z,3.55
2023-03-29T10:35:04.675Z,2.70
2023-03-29T10:38:15.023Z,2.93
2023-03-29T10:41:18.167Z,2.63
2023-03-29T10:44:33.313Z,3.95
2023-03-29T10:47:36.786Z,2.95
2023-03-29T10:50:39.848Z,2.58
2023-03-29T10:53:42.907Z,3.00
2023-03-29T10:56:56.810Z,3.40
2023-03-29T10:59:59.801Z,3.70
2023-03-29T11:03:33.281Z,3.08
2023-03-29T11:06:47.404Z,3.42
2023-03-29T11:10:26.119Z,3.20
2023-03-29T11:13:51.050Z,3.57
2023-03-29T11:17:09.423Z,3.72
2023-03-29T11:20:18.369Z,3.92
2023-03-29T11:23:41.533Z,4.00
2023-03-29T11:26:59.390Z,3.83
2023-03-29T11:30:27.462Z,4.73
2023-03-29T11:33:52.223Z,4.53
2023-03-29T11:37:04.145Z,4.25
2023-03-29T11:40:32.890Z,4.28
2023-03-29T11:43:39.834Z,4.93
2023-03-29T11:46:58.759Z,4.30
2023-03-29T11:50:18.484Z,4.00
2023-03-29T11:53:52.375Z,3.80
2023-03-29T11:57:02.366Z,4.65
2023-03-29T12:00:15.760Z,4.40
2023-03-29T12:03:28.590Z,4.73
2023-03-29T12:06:33.396Z,5.50
2023-03-29T12:09:46.786Z,5.78
2023-03-29T12:13:15.425Z,4.95
2023-03-29T12:16:33.489Z,5.20
2023-03-29T12:20:12.495Z,5.13
2023-03-29T12:23:18.882Z,5.40
2023-03-29T12:26:29.219Z,5.50
2023-03-29T12:30:01.340Z,4.90
2023-03-29T12:33:10.031Z,4.73
2023-03-29T12:36:37.020Z,5.70
2023-03-29T12:40:16.973Z,4.85
2023-03-29T12:43:39.373Z,4.20
2023-03-29T12:47:01.098Z,3.90
2023-03-29T12:50:04.790Z,3.80
2023-03-29T12:53:18.967Z,5.40
2023-03-29T12:56:23.851Z,5.10
2023-03-29T12:59:43.919Z,5.22
2023-03-29T13:02:50.125Z,5.20
2023-03-29T13:06:05.196Z,4.10
2023-03-29T13:09:30.851Z,4.30
2023-03-29T13:12:40.298Z,4.07
2023-03-29T13:15:43.538Z,4.32
2023-03-29T13:18:55.328Z,3.63
2023-03-29T13:22:24.678Z,3.90
2023-03-29T13:25:41.668Z,4.97
2023-03-29T13:28:50.430Z,4.30
2023-03-29T13:32:06.622Z,4.07
2023-03-29T13:35:33.550Z,3.92
2023-03-29T13:38:49.888Z,4.40
2023-03-29T13:41:53.579Z,4.07
2023-03-29T13:45:13.873Z,3.42
2023-03-29T13:48:27.605Z,3.40
2023-03-29T13:51:39.453Z,3.20
2023-03-29T13:54:45.775Z,3.10
2023-03-29T13:58:10.828Z,3.47
2023-03-29T14:01:13.825Z,3.25
2023-03-29T14:04:41.996Z,3.50
2023-03-29T14:07:53.217Z,3.53
2023-03-29T14:10:56.324Z,3.83
2023-03-29T14:14:01.563Z,3.47
2023-03-29T14:17:05.036Z,3.35
2023-03-29T14:20:11.788Z,3.20
2023-03-29T14:23:18.610Z,3.35
2023-03-29T14:26:22.989Z,3.30
2023-03-29T14:29:34.191Z,3.40
2023-03-29T14:32:39.319Z,2.80
2023-03-29T14:35:42.414Z,3.60
2023-03-29T14:38:47.514Z,3.28
2023-03-29T14:41:54.392Z,2.93
2023-03-29T14:45:04.277Z,3.17
2023-03-29T14:48:07.315Z,2.85
2023-03-29T14:51:10.714Z,2.75
2023-03-29T14:54:27.497Z,3.20
2023-03-29T14:57:34.503Z,3.10
2023-03-29T15:00:44.064Z,5.07
2023-03-29T15:03:56.999Z,3.63
2023-03-29T15:07:00.107Z,2.92
2023-03-29T15:10:05.582Z,3.60
2023-03-29T15:13:08.810Z,2.77
2023-03-29T15:16:18.828Z,2.70
2023-03-29T15:19:22.476Z,2.97
2023-03-29T15:22:34.716Z,3.05
2023-03-29T15:25:41.966Z,2.70
2023-03-29T15:28:49.877Z,3.03
2023-03-29T15:31:59.335Z,3.20
2023-03-29T15:35:05.089Z,3.10
2023-03-29T15:38:11.158Z,3.65
2023-03-29T15:41:16.490Z,3.28
2023-03-29T15:44:26.686Z,3.63
2023-03-29T15:47:29.653Z,3.10
2023-03-29T15:50:32.651Z,2.75
2023-03-29T15:53:36.438Z,3.90
2023-03-29T15:56:49.597Z,3.83
2023-03-29T15:59:52.593Z,3.40
2023-03-29T16:02:55.541Z,3.97
2023-03-29T16:05:58.457Z,3.90
2023-03-29T16:09:01.486Z,3.78
2023-03-29T16:12:04.634Z,4.20
2023-03-29T16:15:23.585Z,3.83
2023-03-29T16:18:27.252Z,4.70
2023-03-29T16:21:30.308Z,4.90
2023-03-29T16:24:34.119Z,4.32
2023-03-29T16:27:37.293Z,4.10
2023-03-29T16:30:43.417Z,3.50
2023-03-29T16:33:46.390Z,4.30
2023-03-29T16:36:49.738Z,3.63
2023-03-29T16:39:52.860Z,3.50
2023-03-29T16:42:55.857Z,3.30
2023-03-29T16:45:58.883Z,3.37
2023-03-29T16:49:02.505Z,3.60
2023-03-29T16:52:05.803Z,3.75
2023-03-29T16:55:10.709Z,4.13
2023-03-29T16:58:13.702Z,3.58
2023-03-29T17:01:20.661Z,2.83
2023-03-29T17:04:23.691Z,3.67
2023-03-29T17:07:27.214Z,3.20
2023-03-29T17:10:30.259Z,3.53
2023-03-29T17:13:33.257Z,3.58
2023-03-29T17:16:36.349Z,3.90
2023-03-29T17:19:39.419Z,4.27
2023-03-29T17:22:42.387Z,5.38
2023-03-29T17:25:45.625Z,5.28
2023-03-29T17:28:49.450Z,4.47
2023-03-29T17:31:52.376Z,3.87
2023-03-29T17:34:55.425Z,4.20
2023-03-29T17:37:58.925Z,3.70
2023-03-29T17:41:03.008Z,7.38
2023-03-29T17:44:07.238Z,5.80
2023-03-29T17:47:10.242Z,4.23
2023-03-29T17:50:13.357Z,5.43
2023-03-29T17:53:16.448Z,5.00
2023-03-29T17:56:22.912Z,5.25
2023-03-29T17:59:26.187Z,5.47
2023-03-29T18:02:29.255Z,5.37
2023-03-29T18:05:32.269Z,5.17
2023-03-29T18:08:35.312Z,6.50
2023-03-29T18:11:39.118Z,6.70
2023-03-29T18:14:42.098Z,9.60
2023-03-29T18:17:45.147Z,6.70
2023-03-29T18:20:48.106Z,6.27
2023-03-29T18:23:52.872Z,5.05
2023-03-29T18:26:56.784Z,5.15
2023-03-29T18:30:00.086Z,4.80
2023-03-29T18:33:03.101Z,5.43
2023-03-29T18:36:10.757Z,5.33
2023-03-29T18:39:15.780Z,4.10
2023-03-29T18:42:21.857Z,4.22
2023-03-29T18:45:29.801Z,4.75
2023-03-29T18:48:39.009Z,4.57
2023-03-29T18:51:42.386Z,4.77
2023-03-29T18:54:45.455Z,4.88
2023-03-29T18:57:48.394Z,4.80
2023-03-29T19:00:51.651Z,5.40
2023-03-29T19:04:00.805Z,5.17
2023-03-29T19:07:03.824Z,6.60
2023-03-29T19:10:07.842Z,9.15
2023-03-29T19:13:11.151Z,6.78
2023-03-29T19:16:14.138Z,6.20
2023-03-29T19:19:18.593Z,5.00
2023-03-29T19:22:21.517Z,5.13
2023-03-29T19:25:25.934Z,4.97
2023-03-29T19:28:29.009Z,4.13
2023-03-29T19:31:33.570Z,3.70
2023-03-29T19:34:37.248Z,4.60
2023-03-29T19:37:40.735Z,3.87
2023-03-29T19:40:47.424Z,3.97
2023-03-29T19:43:50.452Z,3.90
2023-03-29T19:46:53.490Z,5.00
2023-03-29T19:49:58.538Z,3.93
2023-03-29T19:53:01.581Z,3.07
2023-03-29T19:56:05.023Z,3.22
2023-03-29T19:59:10.964Z,3.15
2023-03-29T20:02:14.120Z,3.53
2023-03-29T20:05:17.285Z,3.40
2023-03-29T20:08:20.362Z,3.23
2023-03-29T20:11:24.389Z,3.70
2023-03-29T20:14:27.383Z,4.60
2023-03-29T20:17:30.582Z,3.72
2023-03-29T20:20:35.722Z,3.73
2023-03-29T20:23:38.870Z,3.87
2023-03-29T20:26:41.832Z,4.00
2023-03-29T20:29:44.788Z,3.95
2023-03-29T20:32:47.843Z,3.83
2023-03-29T20:35:50.890Z,3.87
2023-03-29T20:38:56.270Z,4.90
2023-03-29T20:42:00.563Z,4.40
2023-03-29T20:45:06.575Z,4.47
2023-03-29T20:48:09.863Z,3.83
2023-03-29T20:51:14.183Z,3.60
2023-03-29T20:54:18.255Z,3.53
2023-03-29T20:57:21.415Z,3.88
2023-03-29T21:00:25.671Z,3.67
2023-03-29T21:03:28.715Z,3.65
2023-03-29T21:06:31.691Z,4.10
2023-03-29T21:09:35.997Z,3.77
2023-03-29T21:12:40.105Z,3.53
2023-03-29T21:15:43.782Z,4.00
2023-03-29T21:18:47.036Z,4.85
2023-03-29T21:21:52.301Z,3.87
2023-03-29T21:24:55.781Z,4.00
2023-03-29T21:27:58.789Z,3.95
2023-03-29T21:31:06.197Z,3.90
2023-03-29T21:34:09.582Z,5.53
2023-03-29T21:37:15.178Z,6.00
2023-03-29T21:40:18.362Z,7.17
2023-03-29T21:43:21.504Z,7.53
2023-03-29T21:46:25.888Z,9.15
2023-03-29T21:49:28.875Z,11.32
2023-03-29T21:52:31.832Z,11.27
2023-03-29T21:55:36.297Z,11.47
2023-03-29T21:58:39.335Z,10.38
2023-03-29T22:01:42.301Z,10.15
2023-03-29T22:04:45.390Z,10.75
2023-03-29T22:07:50.452Z,10.03
2023-03-29T22:10:57.030Z,9.57
2023-03-29T22:14:00.024Z,9.70
2023-03-29T22:17:05.912Z,8.90
2023-03-29T22:20:15.692Z,8.50
2023-03-29T22:23:18.623Z,8.60
2023-03-29T22:26:23.538Z,9.03
2023-03-29T22:29:26.573Z,9.75
2023-03-29T22:32:30.510Z,9.95
2023-03-29T22:35:35.408Z,9.80
2023-03-29T22:38:38.432Z,9.77
2023-03-29T22:41:42.030Z,8.83
2023-03-29T22:44:44.987Z,9.43
2023-03-29T22:47:48.027Z,10.82
2023-03-29T22:50:51.116Z,10.25
2023-03-29T22:53:54.081Z,10.20
2023-03-29T22:56:57.406Z,9.93
2023-03-29T23:00:00.669Z,9.63
2023-03-29T23:03:03.740Z,10.07
2023-03-29T23:06:07.052Z,9.68
2023-03-29T23:09:10.044Z,9.77
2023-03-29T23:12:13.005Z,9.87
2023-03-29T23:15:17.116Z,9.90
2023-03-29T23:18:21.200Z,10.48
2023-03-29T23:21:24.484Z,10.82
2023-03-29T23:24:30.436Z,10.93
2023-03-29T23:27:33.397Z,10.83
2023-03-29T23:30:37.146Z,10.02
2023-03-29T23:33:41.379Z,10.60
2023-03-29T23:36:44.430Z,10.23
2023-03-29T23:39:47.395Z,9.77
2023-03-29T23:42:50.363Z,10.27
2023-03-29T23:45:57.643Z,11.45
2023-03-29T23:49:00.592Z,10.13
2023-03-29T23:52:03.638Z,11.50
2023-03-29T23:55:07.392Z,11.30
2023-03-29T23:58:10.330Z,10.77
